DTTX

Sfax Thyna International Airport

Sfax, Tunisia
METAR DTTX 200700Z 34007KT 8000 BKN020 BKN026 12/07 Q1011 NOSIG
Observed Flight Rules
Feb-20 @ 07:00 UTC (30 minutes ago) Marginal Visual Flight Rules
Wind Visibility Clouds
340° at 7 knots 7,998 meters
  • Broken at 2,000' AGL
  • Broken at 2,600' AGL
Temperatures Readings
Current 12°C / 54°F
Dewpoint 7°C / 45°F
Humidity 72%
Altimeter 29.85" Hg
Pressure 1011 hPa
Elevation 23
METAR DTTX 200700Z 34007KT 8000 BKN020 BKN026 12/07 Q1011 NOSIG
Observed Flight Rules
Feb-20 @ 07:00 UTC
(30 minutes ago)
MVFR
Wind Visibility
340° at 7 knots 7,998 meters
Clouds
  • Broken at 2,000' AGL
  • Broken at 2,600' AGL
Temperature Dewpoint
12°C / 54°F 7°C / 45°F
Humidity Altimeter Pressure
72% 29.85" Hg 1011 hPa